Time;durP1;ratioP1;P1;durP2;ratioP2;P2;SDS_P1;SDS_P2;PMS_P1;PMS_P2;Temp;Humidity;BMP_temperature;BMP_pressure;BME280_temperature;BME280_humidity;BME280_pressure;Samples;Min_cycle;Max_cycle;Signal;HPM_P1;HPM_P2
2022/10/25 00:01:31;;;;;;;2.38;0.93;;;21.70;55.70;;;;;;5052576;28;20120;-48
2022/10/25 00:03:57;;;;;;;1.30;0.80;;;21.70;55.60;;;;;;5050457;28;20465;-52
2022/10/25 00:06:23;;;;;;;1.55;0.77;;;21.70;55.70;;;;;;5051241;28;20388;-49
2022/10/25 00:08:49;;;;;;;2.22;0.80;;;21.70;55.70;;;;;;5049817;28;20389;-48
2022/10/25 00:11:24;;;;;;;1.88;0.80;;;21.70;55.70;;;;;;5049833;28;20021;-48
2022/10/25 00:13:50;;;;;;;;;;;21.70;55.80;;;;;;5048729;28;20081;-49
2022/10/25 00:16:19;;;;;;;2.05;0.60;;;21.70;55.80;;;;;;5051662;28;19932;-48
2022/10/25 00:18:45;;;;;;;1.23;0.73;;;21.70;55.80;;;;;;5047986;28;20428;-52
2022/10/25 00:21:10;;;;;;;2.03;0.80;;;21.70;55.80;;;;;;5051555;28;20086;-49
2022/10/25 00:23:36;;;;;;;1.73;0.60;;;21.60;55.80;;;;;;5051047;28;20127;-48
2022/10/25 00:26:05;;;;;;;2.13;0.80;;;21.60;56.40;;;;;;5052030;28;20444;-49
2022/10/25 00:28:31;;;;;;;2.40;1.00;;;21.60;56.00;;;;;;5050297;28;20028;-50
2022/10/25 00:31:05;;;;;;;2.67;0.73;;;21.60;56.40;;;;;;5050536;28;20029;-50
2022/10/25 00:33:32;;;;;;;1.30;0.65;;;21.60;55.80;;;;;;5052106;28;20021;-50
2022/10/25 00:36:04;;;;;;;2.22;0.90;;;21.60;55.80;;;;;;5049501;28;20078;-48
2022/10/25 00:38:30;;;;;;;2.60;0.82;;;21.60;55.80;;;;;;5049917;28;20033;-49
2022/10/25 00:40:56;;;;;;;3.15;0.80;;;21.60;55.80;;;;;;5049550;28;20094;-51
2022/10/25 00:43:42;;;;;;;2.08;0.75;;;21.60;55.80;;;;;;5051126;28;20049;-48
2022/10/25 00:46:20;;;;;;;1.38;0.70;;;21.60;55.80;;;;;;5049291;28;20380;-49
2022/10/25 00:49:17;;;;;;;1.45;0.73;;;21.60;55.90;;;;;;5050013;28;20033;-48
2022/10/25 00:51:48;;;;;;;2.80;0.90;;;21.60;55.90;;;;;;5049739;28;20380;-50
2022/10/25 00:54:19;;;;;;;2.13;0.75;;;21.60;55.90;;;;;;5051597;28;20112;-47
2022/10/25 00:56:47;;;;;;;2.05;0.80;;;21.60;55.90;;;;;;5051148;28;20025;-52
2022/10/25 00:59:19;;;;;;;3.88;1.00;;;21.60;55.90;;;;;;5047907;28;20040;-48
2022/10/25 01:01:45;;;;;;;1.13;0.57;;;21.60;55.90;;;;;;5049926;28;20353;-53
2022/10/25 01:04:14;;;;;;;1.55;0.80;;;21.60;56.00;;;;;;5049806;28;20052;-49
2022/10/25 01:06:44;;;;;;;1.55;0.60;;;21.60;56.00;;;;;;5050669;28;20058;-49
2022/10/25 01:09:15;;;;;;;2.42;0.80;;;21.60;56.00;;;;;;5049068;28;20029;-47
2022/10/25 01:11:42;;;;;;;2.83;0.90;;;21.60;56.00;;;;;;5050945;28;20448;-49
2022/10/25 01:14:11;;;;;;;1.98;0.98;;;21.60;56.00;;;;;;5049521;28;20028;-48
2022/10/25 01:17:19;;;;;;;2.97;0.85;;;21.60;56.00;;;;;;5050688;28;20021;-48
2022/10/25 01:19:57;;;;;;;1.13;0.70;;;21.60;56.00;;;;;;5049870;28;20086;-49
2022/10/25 01:22:37;;;;;;;2.25;0.80;;;21.60;56.00;;;;;;5049157;28;20020;-48
2022/10/25 01:25:30;;;;;;;1.95;0.77;;;21.50;56.00;;;;;;5050546;28;20148;-48
2022/10/25 01:28:11;;;;;;;3.10;0.90;;;21.60;56.70;;;;;;5048120;28;20036;-51
2022/10/25 01:31:10;;;;;;;2.60;0.95;;;21.50;56.10;;;;;;5050279;28;20029;-48
2022/10/25 01:33:42;;;;;;;2.83;0.88;;;21.60;56.20;;;;;;5049781;28;20029;-49
2022/10/25 01:36:24;;;;;;;1.67;0.60;;;21.50;56.10;;;;;;5050618;28;20028;-51
2022/10/25 01:39:13;;;;;;;1.80;0.85;;;21.50;56.10;;;;;;5048519;28;20037;-52
2022/10/25 01:41:42;;;;;;;1.65;0.55;;;21.60;56.20;;;;;;5049407;28;20059;-49
2022/10/25 01:44:48;;;;;;;2.40;0.73;;;21.50;56.20;;;;;;5048449;28;20041;-47
2022/10/25 01:47:20;;;;;;;1.50;0.77;;;21.50;56.20;;;;;;5046908;28;20047;-48
2022/10/25 01:50:09;;;;;;;2.05;0.88;;;21.50;56.20;;;;;;5050241;28;20025;-48
2022/10/25 01:52:35;;;;;;;2.25;0.80;;;21.50;56.20;;;;;;5049109;28;20039;-50
2022/10/25 01:55:04;;;;;;;3.33;0.95;;;21.50;56.20;;;;;;5050370;28;20115;-49
2022/10/25 01:58:02;;;;;;;2.78;0.75;;;21.50;56.30;;;;;;5050809;28;20029;-50
2022/10/25 02:00:34;;;;;;;2.55;0.80;;;21.50;56.30;;;;;;5023826;28;20044;-49
2022/10/25 02:03:06;;;;;;;1.50;0.60;;;21.50;56.30;;;;;;5047217;28;20048;-51
2022/10/25 02:05:53;;;;;;;1.48;0.50;;;21.50;56.30;;;;;;5047113;28;20025;-47
2022/10/25 02:08:34;;;;;;;2.83;0.55;;;21.50;56.30;;;;;;5047077;28;20021;-49
2022/10/25 02:11:10;;;;;;;3.28;0.82;;;21.50;56.30;;;;;;5047214;28;20108;-49
2022/10/25 02:14:14;;;;;;;2.40;0.90;;;21.50;56.30;;;;;;5048971;28;20344;-49
2022/10/25 02:16:49;;;;;;;1.80;0.57;;;21.50;56.30;;;;;;5048056;28;20044;-52
2022/10/25 02:19:20;;;;;;;3.17;0.90;;;21.50;56.40;;;;;;5048562;28;20036;-51
2022/10/25 02:21:48;;;;;;;3.42;1.27;;;21.50;56.40;;;;;;5049471;28;20036;-48
2022/10/25 02:24:22;;;;;;;2.28;0.70;;;21.50;56.40;;;;;;5049459;28;20047;-51
2022/10/25 02:26:49;;;;;;;2.33;0.82;;;21.50;56.40;;;;;;5048930;28;20039;-47
2022/10/25 02:29:17;;;;;;;4.82;1.10;;;21.50;56.40;;;;;;5047938;28;20037;-49
2022/10/25 02:31:44;;;;;;;2.83;0.85;;;21.50;56.40;;;;;;5049114;28;20025;-50
2022/10/25 02:34:10;;;;;;;2.50;0.80;;;21.50;56.40;;;;;;5047587;28;20329;-52
2022/10/25 02:36:36;;;;;;;1.05;0.60;;;21.50;56.40;;;;;;5049786;28;20021;-51
2022/10/25 02:39:03;;;;;;;1.75;0.80;;;21.50;56.40;;;;;;5047825;28;20036;-47
2022/10/25 02:41:29;;;;;;;2.10;0.73;;;21.50;56.40;;;;;;5048133;28;20025;-51
2022/10/25 02:43:55;;;;;;;2.60;0.88;;;21.50;56.40;;;;;;5046001;28;20348;-47
2022/10/25 02:46:22;;;;;;;4.10;1.00;;;21.50;56.40;;;;;;5049866;28;20021;-51
2022/10/25 02:48:48;;;;;;;3.05;0.85;;;21.50;56.40;;;;;;5048992;28;20043;-48
2022/10/25 02:51:15;;;;;;;2.00;0.77;;;21.50;56.40;;;;;;5048670;28;20106;-50
2022/10/25 02:53:41;;;;;;;2.13;0.82;;;21.50;56.40;;;;;;5047467;28;20035;-49
2022/10/25 02:56:14;;;;;;;3.08;0.68;;;21.50;56.50;;;;;;5048206;28;20021;-50
2022/10/25 02:58:42;;;;;;;3.05;0.90;;;21.50;56.40;;;;;;5048270;28;20371;-50
2022/10/25 03:01:08;;;;;;;1.75;0.68;;;21.50;56.50;;;;;;5046539;28;20440;-48
2022/10/25 03:03:34;;;;;;;2.00;0.80;;;21.50;56.50;;;;;;5049561;28;20055;-46
2022/10/25 03:06:00;;;;;;;2.13;0.70;;;21.40;56.40;;;;;;5048117;28;20104;-50
2022/10/25 03:08:27;;;;;;;2.10;0.77;;;21.40;56.50;;;;;;5049816;28;20021;-46
2022/10/25 03:10:53;;;;;;;4.07;0.80;;;21.50;56.50;;;;;;5047149;28;20889;-48
2022/10/25 03:13:19;;;;;;;1.75;0.75;;;21.40;56.40;;;;;;5047670;28;20043;-51
2022/10/25 03:15:45;;;;;;;1.75;0.80;;;21.50;56.50;;;;;;5048397;28;20361;-48
2022/10/25 03:18:12;;;;;;;2.90;1.00;;;21.40;56.40;;;;;;5048960;28;20039;-51
2022/10/25 03:20:38;;;;;;;3.55;1.23;;;21.50;56.50;;;;;;5045685;28;20494;-47
2022/10/25 03:23:04;;;;;;;2.30;0.80;;;21.40;56.40;;;;;;5049531;28;20037;-48
2022/10/25 03:25:31;;;;;;;2.05;0.82;;;21.50;56.50;;;;;;5048171;28;20025;-47
2022/10/25 03:27:59;;;;;;;3.65;0.88;;;21.50;56.50;;;;;;5051641;28;20031;-50
2022/10/25 03:30:25;;;;;;;2.95;0.73;;;21.40;57.00;;;;;;5051104;28;20368;-51
2022/10/25 03:32:51;;;;;;;2.58;0.82;;;21.40;56.50;;;;;;5053214;28;20120;-49
2022/10/25 03:35:17;;;;;;;3.22;1.10;;;21.40;56.40;;;;;;5052446;28;20024;-52
2022/10/25 03:37:43;;;;;;;3.30;0.95;;;21.40;56.40;;;;;;5052898;28;20108;-49
2022/10/25 03:40:09;;;;;;;3.13;1.00;;;21.40;56.40;;;;;;5052154;28;20387;-48
2022/10/25 03:42:35;;;;;;;2.65;0.85;;;21.40;56.40;;;;;;5053159;28;20041;-48
2022/10/25 03:45:02;;;;;;;5.55;0.95;;;21.40;56.40;;;;;;5051762;28;20175;-49
2022/10/25 03:47:27;;;;;;;3.08;1.15;;;21.40;56.40;;;;;;5052712;28;20445;-51
2022/10/25 03:49:53;;;;;;;1.95;0.93;;;21.40;56.40;;;;;;5049662;28;20037;-46
2022/10/25 03:52:19;;;;;;;3.38;0.90;;;21.40;56.40;;;;;;5052584;28;20540;-48
2022/10/25 03:54:45;;;;;;;2.08;0.70;;;21.40;57.10;;;;;;5051578;28;20029;-51
2022/10/25 03:57:10;;;;;;;2.22;0.77;;;21.40;56.40;;;;;;5052177;28;20056;-49
2022/10/25 03:59:36;;;;;;;2.50;0.80;;;21.40;56.40;;;;;;5052431;28;20116;-49
2022/10/25 04:02:02;;;;;;;1.98;0.80;;;21.40;56.40;;;;;;5051710;28;20021;-47
2022/10/25 04:04:28;;;;;;;2.85;1.00;;;21.40;56.40;;;;;;5052696;28;20507;-48
2022/10/25 04:06:54;;;;;;;5.38;1.00;;;21.40;56.50;;;;;;5050570;28;20033;-52
2022/10/25 04:09:19;;;;;;;2.58;0.90;;;21.40;56.40;;;;;;5050695;28;20020;-48
2022/10/25 04:11:45;;;;;;;3.92;1.15;;;21.40;56.50;;;;;;5051136;28;20120;-48
2022/10/25 04:14:11;;;;;;;2.33;0.77;;;21.40;56.40;;;;;;5051869;28;20029;-47
2022/10/25 04:16:37;;;;;;;3.08;0.85;;;21.40;56.40;;;;;;5050694;28;20033;-51
2022/10/25 04:19:03;;;;;;;3.28;1.08;;;21.40;56.40;;;;;;5047392;28;20024;-47
2022/10/25 04:21:29;;;;;;;2.90;0.90;;;21.40;56.40;;;;;;5048687;28;20025;-48
2022/10/25 04:23:55;;;;;;;2.78;1.10;;;21.40;56.40;;;;;;5050638;28;20079;-50
2022/10/25 04:26:21;;;;;;;2.63;0.88;;;21.40;56.40;;;;;;5051742;28;20125;-48
2022/10/25 04:28:52;;;;;;;2.58;0.90;;;21.40;56.40;;;;;;5051764;28;20113;-49
2022/10/25 04:31:19;;;;;;;2.55;0.90;;;21.40;56.40;;;;;;5049520;28;20029;-50
2022/10/25 04:33:52;;;;;;;2.33;0.80;;;21.40;56.40;;;;;;5051333;28;20115;-50
2022/10/25 04:36:19;;;;;;;2.97;1.05;;;21.30;56.30;;;;;;5047925;28;20044;-47
2022/10/25 04:38:51;;;;;;;4.22;1.05;;;21.40;56.40;;;;;;5051872;28;20032;-49
2022/10/25 04:41:18;;;;;;;2.38;0.75;;;21.40;56.40;;;;;;5051108;28;20460;-51
2022/10/25 04:43:45;;;;;;;4.30;1.13;;;21.40;56.30;;;;;;5051406;28;20071;-51
2022/10/25 04:46:11;;;;;;;2.75;1.08;;;21.40;56.30;;;;;;5051322;28;20106;-50
2022/10/25 04:48:38;;;;;;;2.78;0.85;;;21.40;56.30;;;;;;5050735;28;20028;-47
2022/10/25 04:51:04;;;;;;;1.95;0.90;;;21.30;56.30;;;;;;5051675;28;20033;-47
2022/10/25 04:53:30;;;;;;;2.60;0.85;;;21.30;56.30;;;;;;5050585;28;20086;-49
2022/10/25 04:56:01;;;;;;;2.80;1.20;;;21.40;56.30;;;;;;5048900;28;20025;-47
2022/10/25 04:58:27;;;;;;;3.22;0.88;;;21.30;56.30;;;;;;5050396;28;20021;-50
2022/10/25 05:00:57;;;;;;;2.70;1.00;;;21.30;56.30;;;;;;5050341;28;20033;-48
2022/10/25 05:03:23;;;;;;;3.10;1.05;;;21.40;56.30;;;;;;5049160;28;20487;-50
2022/10/25 05:05:49;;;;;;;2.85;0.95;;;21.30;56.30;;;;;;5050230;28;20060;-47
2022/10/25 05:08:15;;;;;;;4.68;1.75;;;21.30;56.30;;;;;;5050305;28;20112;-51
2022/10/25 05:10:40;;;;;;;2.58;1.00;;;21.40;56.30;;;;;;5048789;28;20486;-50
2022/10/25 05:13:06;;;;;;;1.65;0.73;;;21.30;56.30;;;;;;5048686;28;20036;-50
2022/10/25 05:15:32;;;;;;;2.33;0.80;;;21.40;56.30;;;;;;5050399;28;20350;-49
2022/10/25 05:17:59;;;;;;;2.58;1.00;;;21.30;56.30;;;;;;5049086;28;20033;-51
2022/10/25 05:20:26;;;;;;;1.92;0.90;;;21.40;56.30;;;;;;5047154;28;20029;-49
2022/10/25 05:22:52;;;;;;;3.15;0.90;;;21.30;56.80;;;;;;5050145;28;20064;-52
2022/10/25 05:25:17;;;;;;;2.50;0.90;;;21.30;56.30;;;;;;5050795;28;20083;-49
2022/10/25 05:27:43;;;;;;;2.40;1.00;;;21.40;56.30;;;;;;5050151;28;20348;-47
2022/10/25 05:30:10;;;;;;;2.90;0.98;;;21.30;56.30;;;;;;5050023;28;20039;-50
2022/10/25 05:32:35;;;;;;;2.47;0.90;;;21.30;56.30;;;;;;5050451;28;20037;-48
2022/10/25 05:35:02;;;;;;;2.53;1.27;;;21.30;56.30;;;;;;5050677;28;20029;-48
2022/10/25 05:37:27;;;;;;;3.40;0.80;;;21.30;56.30;;;;;;5050475;28;20025;-51
2022/10/25 05:39:53;;;;;;;2.15;0.73;;;21.30;56.30;;;;;;5050143;28;20055;-50
2022/10/25 05:42:19;;;;;;;1.80;0.77;;;21.30;56.20;;;;;;5049162;28;20104;-49
2022/10/25 05:44:45;;;;;;;2.10;0.75;;;21.30;56.20;;;;;;5050095;28;20819;-50
2022/10/25 05:47:11;;;;;;;2.83;0.70;;;21.30;56.20;;;;;;5049579;28;20032;-47
2022/10/25 05:49:39;;;;;;;3.08;1.13;;;21.30;56.20;;;;;;5050421;28;20029;-51
2022/10/25 05:52:06;;;;;;;3.05;1.15;;;21.30;56.20;;;;;;5050681;28;20029;-51
2022/10/25 05:54:32;;;;;;;2.22;0.90;;;21.30;56.20;;;;;;5047138;28;20108;-53
2022/10/25 05:56:57;;;;;;;2.38;0.93;;;21.30;56.30;;;;;;5046180;28;20163;-50
2022/10/25 05:59:23;;;;;;;2.45;0.90;;;21.30;56.20;;;;;;5049641;28;20451;-48
2022/10/25 06:01:49;;;;;;;2.30;1.08;;;21.30;56.20;;;;;;5048448;28;20025;-48
2022/10/25 06:04:16;;;;;;;2.35;0.80;;;21.30;56.20;;;;;;5049163;28;20443;-50
2022/10/25 06:06:44;;;;;;;2.45;1.00;;;21.30;56.20;;;;;;5048054;28;20029;-49
2022/10/25 06:09:10;;;;;;;2.85;1.00;;;21.30;56.30;;;;;;5048027;28;20098;-50
2022/10/25 06:11:37;;;;;;;2.50;0.75;;;21.30;56.90;;;;;;5049325;28;20028;-49
2022/10/25 06:14:04;;;;;;;5.70;1.70;;;21.30;56.30;;;;;;5048367;28;20048;-53
2022/10/25 06:16:31;;;;;;;3.17;1.20;;;21.30;56.30;;;;;;5029154;28;20034;-49
2022/10/25 06:18:56;;;;;;;2.15;0.80;;;21.30;56.30;;;;;;5028852;28;20018;-52
2022/10/25 06:21:25;;;;;;;1.98;0.80;;;21.30;56.30;;;;;;5027509;28;20483;-53
2022/10/25 06:23:51;;;;;;;2.03;0.90;;;21.30;56.30;;;;;;5026290;28;20041;-50
2022/10/25 06:26:23;;;;;;;2.10;0.98;;;21.30;56.30;;;;;;5030291;28;20048;-48
2022/10/25 06:28:54;;;;;;;2.03;0.77;;;21.30;56.40;;;;;;5029620;28;20025;-52
2022/10/25 06:31:21;;;;;;;2.63;0.85;;;21.30;56.30;;;;;;5029378;28;20353;-48
2022/10/25 06:33:47;;;;;;;3.17;0.93;;;21.30;56.40;;;;;;5025599;28;20035;-49
2022/10/25 06:36:16;;;;;;;2.75;0.80;;;21.30;56.40;;;;;;5030087;28;20040;-49
2022/10/25 06:38:43;;;;;;;3.80;1.25;;;21.30;56.40;;;;;;5029861;28;20032;-51
2022/10/25 06:41:12;;;;;;;2.70;1.25;;;21.30;56.40;;;;;;5029195;28;20049;-51
2022/10/25 06:43:38;;;;;;;3.53;1.08;;;21.30;56.40;;;;;;5027586;28;20042;-48
2022/10/25 06:46:05;;;;;;;2.40;1.08;;;21.30;56.40;;;;;;5025568;28;20033;-50
2022/10/25 06:48:31;;;;;;;2.55;0.90;;;21.30;56.30;;;;;;5029235;28;20352;-48
2022/10/25 06:51:05;;;;;;;2.78;1.20;;;21.30;56.30;;;;;;5026370;28;20029;-47
2022/10/25 06:53:32;;;;;;;4.57;1.35;;;21.30;56.40;;;;;;5028393;28;20372;-49
2022/10/25 06:56:06;;;;;;;4.50;1.63;;;21.30;56.40;;;;;;5028367;28;20376;-51
2022/10/25 06:58:34;;;;;;;3.85;1.20;;;21.30;56.40;;;;;;5024843;28;20033;-51
2022/10/25 07:01:11;;;;;;;3.83;1.15;;;21.30;56.40;;;;;;5030671;28;20032;-48
2022/10/25 07:03:39;;;;;;;2.97;1.17;;;21.30;56.50;;;;;;5032854;28;20048;-52
2022/10/25 07:06:10;;;;;;;4.97;1.30;;;21.30;56.50;;;;;;5032523;28;20037;-49
2022/10/25 07:08:38;;;;;;;3.28;1.08;;;21.30;56.60;;;;;;5033107;28;20049;-47
2022/10/25 07:11:06;;;;;;;4.43;1.42;;;21.20;56.50;;;;;;5032243;28;20453;-47
2022/10/25 07:13:33;;;;;;;4.32;1.80;;;21.30;56.70;;;;;;5004215;28;20052;-52
2022/10/25 07:16:03;;;;;;;6.50;1.70;;;21.30;56.70;;;;;;5047021;28;20041;-51
2022/10/25 07:18:30;;;;;;;4.90;1.67;;;21.30;56.70;;;;;;5051204;28;20028;-51
2022/10/25 07:21:00;;;;;;;6.68;2.13;;;21.30;56.80;;;;;;5048326;28;20048;-47
2022/10/25 07:23:27;;;;;;;5.75;2.30;;;21.30;56.80;;;;;;5037746;28;20467;-52
2022/10/25 07:25:53;;;;;;;12.32;3.15;;;21.30;56.80;;;;;;5056966;28;20040;-48
2022/10/25 07:28:19;;;;;;;9.40;2.90;;;21.30;56.80;;;;;;5056516;28;20081;-50
2022/10/25 07:30:46;;;;;;;6.13;2.13;;;21.30;56.80;;;;;;5051635;28;20091;-53
2022/10/25 07:33:13;;;;;;;7.60;2.80;;;21.30;56.80;;;;;;5052633;28;20025;-49
2022/10/25 07:35:47;;;;;;;5.82;2.17;;;21.30;56.80;;;;;;5057113;28;20021;-48
2022/10/25 07:38:14;;;;;;;5.25;2.20;;;21.30;56.80;;;;;;5051696;28;20388;-50
2022/10/25 07:40:40;;;;;;;7.75;2.40;;;21.30;56.80;;;;;;5051326;28;20371;-51
2022/10/25 07:43:06;;;;;;;4.28;1.90;;;21.30;56.80;;;;;;5050267;28;20056;-47
2022/10/25 07:45:32;;;;;;;3.10;1.52;;;21.30;56.80;;;;;;5052807;28;20036;-50
2022/10/25 07:47:58;;;;;;;4.68;1.95;;;21.30;56.80;;;;;;5052477;28;20021;-47
2022/10/25 07:50:23;;;;;;;4.45;1.90;;;21.30;56.80;;;;;;5053005;28;20428;-51
2022/10/25 07:52:49;;;;;;;4.80;2.08;;;21.30;56.80;;;;;;5051893;28;20084;-49
2022/10/25 07:55:15;;;;;;;6.10;2.30;;;21.30;56.80;;;;;;5050529;28;20127;-50
2022/10/25 07:57:41;;;;;;;5.57;1.85;;;21.30;56.70;;;;;;5050436;28;20021;-51
2022/10/25 08:00:09;;;;;;;4.75;1.83;;;21.30;56.70;;;;;;5050278;28;20037;-46
2022/10/25 08:02:35;;;;;;;5.38;1.65;;;21.30;56.70;;;;;;5051713;28;20372;-48
2022/10/25 08:05:01;;;;;;;5.10;1.92;;;21.30;56.70;;;;;;5050168;28;20068;-52
2022/10/25 08:07:27;;;;;;;4.50;1.70;;;21.30;56.70;;;;;;5055511;28;20071;-46
2022/10/25 08:09:53;;;;;;;5.18;1.70;;;21.30;56.70;;;;;;5056951;28;20029;-48
2022/10/25 08:12:19;;;;;;;4.07;1.50;;;21.30;56.70;;;;;;5053937;28;20459;-48
2022/10/25 08:14:44;;;;;;;2.58;1.23;;;21.30;56.60;;;;;;5048798;28;20456;-48
2022/10/25 08:17:10;;;;;;;4.78;1.75;;;21.30;56.50;;;;;;5027197;28;20034;-46
2022/10/25 08:19:36;;;;;;;4.25;1.73;;;21.30;56.50;;;;;;5035564;28;20033;-50
2022/10/25 08:22:02;;;;;;;4.28;1.55;;;21.30;56.40;;;;;;5035526;28;20063;-49
2022/10/25 08:24:28;;;;;;;2.97;1.40;;;21.30;56.30;;;;;;5036955;28;20045;-52
2022/10/25 08:26:54;;;;;;;4.95;1.55;;;21.30;56.30;;;;;;5036320;28;20029;-48
2022/10/25 08:29:19;;;;;;;3.53;1.38;;;21.30;56.20;;;;;;5036517;28;20040;-51
2022/10/25 08:31:45;;;;;;;5.18;1.60;;;21.30;56.20;;;;;;5033962;28;20030;-49
2022/10/25 08:34:11;;;;;;;4.47;1.33;;;21.30;56.10;;;;;;5036240;28;20345;-49
2022/10/25 08:36:37;;;;;;;4.75;1.67;;;21.30;56.10;;;;;;5036575;28;20109;-49
2022/10/25 08:39:03;;;;;;;2.97;1.52;;;21.30;56.10;;;;;;5036402;28;20091;-52
2022/10/25 08:41:52;;;;;;;4.53;1.50;;;21.40;56.10;;;;;;5036373;28;20025;-50
2022/10/25 08:44:24;;;;;;;2.90;1.45;;;21.40;56.00;;;;;;5036242;28;20049;-48
2022/10/25 08:47:21;;;;;;;4.35;1.55;;;21.40;56.00;;;;;;5035602;28;20029;-52
2022/10/25 08:49:54;;;;;;;3.55;1.80;;;21.40;55.90;;;;;;5029450;28;20049;-47
2022/10/25 08:52:37;;;;;;;4.63;1.30;;;21.40;55.90;;;;;;5036225;28;20036;-51
2022/10/25 08:55:10;;;;;;;3.83;1.55;;;21.40;55.90;;;;;;5018262;28;20033;-49
2022/10/25 08:57:40;;;;;;;5.40;1.73;;;21.40;55.80;;;;;;5035693;28;20040;-52
2022/10/25 09:00:12;;;;;;;2.88;1.25;;;21.40;55.80;;;;;;5036303;28;20033;-51
2022/10/25 09:02:47;;;;;;;4.00;1.67;;;21.40;55.80;;;;;;5034606;28;20033;-46
2022/10/25 09:05:21;;;;;;;3.25;1.65;;;21.40;55.80;;;;;;5035654;28;20080;-50
2022/10/25 09:08:01;;;;;;;4.78;1.83;;;21.40;55.70;;;;;;5035831;28;20052;-52
2022/10/25 09:10:49;;;;;;;2.40;1.30;;;21.40;55.70;;;;;;5034740;28;20029;-49
2022/10/25 09:13:33;;;;;;;2.53;1.52;;;21.40;55.70;;;;;;5016928;28;20045;-52
2022/10/25 09:16:15;;;;;;;2.78;1.40;;;21.40;55.60;;;;;;5025661;28;20056;-50
2022/10/25 09:18:56;;;;;;;2.95;1.30;;;21.40;55.60;;;;;;5036071;28;20453;-51
2022/10/25 09:21:41;;;;;;;4.10;1.63;;;21.40;55.60;;;;;;5048255;28;20071;-50
2022/10/25 09:24:21;;;;;;;3.55;1.77;;;21.40;55.50;;;;;;5054452;28;20299;-50
2022/10/25 09:27:13;;;;;;;3.20;1.65;;;21.40;55.50;;;;;;5055498;28;20039;-48
2022/10/25 09:30:06;;;;;;;4.00;1.67;;;21.40;55.50;;;;;;5038831;28;20036;-48
2022/10/25 09:32:45;;;;;;;3.05;1.30;;;21.40;55.40;;;;;;5053830;28;20458;-48
2022/10/25 09:35:23;;;;;;;3.10;1.50;;;21.40;55.40;;;;;;5055612;28;20463;-48
2022/10/25 09:37:54;;;;;;;3.70;1.60;;;21.40;55.40;;;;;;5055332;28;20149;-48
2022/10/25 09:40:32;;;;;;;2.97;1.50;;;21.40;55.40;;;;;;5053846;28;20345;-46
2022/10/25 09:43:05;;;;;;;3.42;1.63;;;21.40;55.30;;;;;;5054806;28;20111;-51
2022/10/25 09:45:44;;;;;;;3.33;1.73;;;21.40;55.30;;;;;;5054917;28;20036;-51
2022/10/25 09:48:36;;;;;;;2.85;1.70;;;21.40;55.30;;;;;;5055123;28;20040;-49
2022/10/25 09:51:22;;;;;;;4.63;1.50;;;21.50;55.30;;;;;;5050773;28;20033;-51
2022/10/25 09:53:49;;;;;;;3.10;1.67;;;21.50;55.30;;;;;;5049559;28;20035;-54
2022/10/25 09:56:16;;;;;;;2.55;1.45;;;21.50;55.30;;;;;;5048681;28;20025;-51
2022/10/25 09:58:46;;;;;;;3.33;1.70;;;21.40;55.30;;;;;;5053314;28;20029;-50
2022/10/25 10:01:27;;;;;;;3.47;1.65;;;21.50;55.30;;;;;;5055028;28;20068;-53
2022/10/25 10:03:54;;;;;;;3.38;1.65;;;21.50;55.30;;;;;;5049296;28;20033;-50
2022/10/25 10:06:27;;;;;;;6.43;2.40;;;21.50;55.30;;;;;;5035309;28;20099;-54
2022/10/25 10:09:05;;;;;;;4.05;1.80;;;21.50;55.30;;;;;;5046355;28;20079;-48
2022/10/25 10:11:34;;;;;;;4.22;1.80;;;21.50;55.30;;;;;;5042027;28;20025;-47
2022/10/25 10:14:32;;;;;;;3.20;1.65;;;21.50;55.30;;;;;;5052213;28;20067;-53
2022/10/25 10:17:00;;;;;;;5.00;1.80;;;21.50;55.30;;;;;;5045184;28;20037;-58
2022/10/25 10:19:28;;;;;;;3.25;1.90;;;21.50;55.40;;;;;;5041014;28;20037;-56
2022/10/25 10:21:56;;;;;;;2.95;1.63;;;21.50;55.70;;;;;;5045495;28;20440;-57
2022/10/25 10:24:34;;;;;;;5.70;1.92;;;21.50;55.90;;;;;;5054657;28;20049;-55
2022/10/25 10:27:22;;;;;;;3.47;1.70;;;21.60;56.00;;;;;;5048292;28;20076;-58
2022/10/25 10:29:58;;;;;;;3.45;1.60;;;21.70;56.60;;;;;;5039517;28;20095;-55
2022/10/25 10:32:32;;;;;;;4.22;1.77;;;21.70;55.80;;;;;;5043023;28;20045;-58
2022/10/25 10:35:00;;;;;;;3.58;1.80;;;21.90;55.70;;;;;;5043736;28;20025;-57
2022/10/25 10:37:28;;;;;;;4.93;1.70;;;21.90;55.50;;;;;;5044417;28;20033;-53
2022/10/25 10:40:23;;;;;;;3.08;1.80;;;22.10;55.40;;;;;;5046406;28;20025;-55
2022/10/25 10:42:48;;;;;;;4.38;1.80;;;22.20;55.10;;;;;;5045672;28;20460;-53
2022/10/25 10:45:18;;;;;;;3.67;1.45;;;22.30;54.90;;;;;;5044510;28;20094;-58
2022/10/25 10:47:50;;;;;;;4.15;1.83;;;22.40;54.60;;;;;;5044005;28;20044;-59
2022/10/25 10:50:23;;;;;;;5.60;1.50;;;22.50;54.40;;;;;;5046633;28;20041;-53
2022/10/25 10:52:59;;;;;;;5.00;1.55;;;22.60;54.20;;;;;;5050653;28;20120;-56
2022/10/25 10:55:42;;;;;;;2.78;1.60;;;22.70;54.00;;;;;;5044464;28;20465;-56
2022/10/25 10:58:15;;;;;;;4.10;1.70;;;22.80;53.80;;;;;;5055134;28;20085;-58
2022/10/25 11:00:55;;;;;;;2.95;1.60;;;22.90;53.60;;;;;;5054341;28;20070;-53
2022/10/25 11:03:56;;;;;;;3.53;1.60;;;22.90;53.40;;;;;;5046797;28;20039;-53
2022/10/25 11:06:28;;;;;;;2.22;1.35;;;23.00;53.20;;;;;;5011136;28;20131;-53
2022/10/25 11:09:24;;;;;;;5.35;1.70;;;23.10;53.10;;;;;;5049131;28;20079;-56
2022/10/25 11:12:17;;;;;;;3.17;1.50;;;23.20;52.90;;;;;;5031618;28;20037;-57
2022/10/25 11:14:43;;;;;;;3.45;1.67;;;23.20;52.90;;;;;;5045559;28;20058;-56
2022/10/25 11:17:18;;;;;;;3.70;1.63;;;23.30;52.80;;;;;;5046029;28;20036;-54
2022/10/25 11:20:15;;;;;;;3.25;1.50;;;23.40;52.70;;;;;;5048396;28;20344;-53
2022/10/25 11:22:55;;;;;;;2.55;1.48;;;23.40;52.50;;;;;;5047301;28;20124;-51
2022/10/25 11:25:30;;;;;;;2.80;1.48;;;23.50;52.40;;;;;;5048472;28;20033;-56
2022/10/25 11:28:14;;;;;;;3.20;1.70;;;23.50;52.20;;;;;;5045629;28;20017;-50
2022/10/25 11:31:14;;;;;;;3.47;1.73;;;23.60;52.10;;;;;;5047192;28;20170;-53
2022/10/25 11:34:14;;;;;;;2.55;1.63;;;23.70;52.00;;;;;;5045107;28;20448;-60
2022/10/25 11:36:55;;;;;;;3.17;1.50;;;23.70;51.80;;;;;;5044705;28;20033;-55
2022/10/25 11:39:43;;;;;;;3.00;1.70;;;23.80;51.70;;;;;;5048810;28;20037;-54
2022/10/25 11:42:20;;;;;;;3.85;1.70;;;23.80;51.60;;;;;;5045985;28;20056;-55
2022/10/25 11:45:05;;;;;;;5.05;1.90;;;23.90;51.50;;;;;;5037848;28;20037;-57
2022/10/25 11:47:47;;;;;;;4.10;1.45;;;23.90;51.30;;;;;;5055824;28;20058;-57
2022/10/25 11:50:35;;;;;;;4.35;1.27;;;24.00;51.10;;;;;;5055575;28;20040;-57
2022/10/25 11:53:33;;;;;;;3.30;1.40;;;24.00;51.00;;;;;;5056233;28;20025;-58
2022/10/25 11:56:32;;;;;;;2.95;1.70;;;24.00;50.90;;;;;;5057703;28;20068;-58
2022/10/25 11:59:17;;;;;;;3.17;1.42;;;24.10;50.70;;;;;;5056683;28;20099;-59
2022/10/25 12:01:57;;;;;;;3.88;1.63;;;24.10;50.70;;;;;;5054893;28;20318;-59
2022/10/25 12:04:25;;;;;;;3.55;1.73;;;24.10;50.60;;;;;;5057173;28;20065;-58
2022/10/25 12:06:56;;;;;;;4.28;1.98;;;24.10;50.50;;;;;;5057257;28;20024;-55
2022/10/25 12:09:49;;;;;;;3.53;1.63;;;24.20;50.40;;;;;;5054749;28;20503;-58
2022/10/25 12:12:24;;;;;;;4.13;1.70;;;24.20;50.30;;;;;;5057126;28;20037;-57
2022/10/25 12:14:54;;;;;;;3.33;1.60;;;24.30;50.30;;;;;;5056720;28;20083;-56
2022/10/25 12:17:29;;;;;;;3.60;1.60;;;24.30;50.20;;;;;;5055191;28;20413;-58
2022/10/25 12:20:04;;;;;;;2.95;1.60;;;24.30;50.10;;;;;;5055527;28;20036;-56
2022/10/25 12:22:38;;;;;;;2.70;1.40;;;24.30;50.00;;;;;;5054901;28;20120;-55
2022/10/25 12:25:28;;;;;;;3.85;1.52;;;24.30;49.90;;;;;;5056881;28;20044;-55
2022/10/25 12:28:05;;;;;;;5.05;1.80;;;24.40;49.80;;;;;;5055313;28;20083;-54
2022/10/25 12:30:33;;;;;;;4.65;1.80;;;24.40;49.70;;;;;;5052814;28;20033;-58
2022/10/25 12:33:23;;;;;;;3.10;1.70;;;24.40;49.60;;;;;;5056693;28;20040;-56
2022/10/25 12:35:53;;;;;;;1.90;1.00;;;24.40;49.50;;;;;;5056539;28;20118;-61
2022/10/25 12:38:36;;;;;;;2.80;1.35;;;24.40;49.40;;;;;;5054402;28;20032;-57
2022/10/25 12:41:24;;;;;;;1.57;1.00;;;24.50;49.30;;;;;;5055406;28;20091;-54
2022/10/25 12:44:12;;;;;;;2.75;1.13;;;24.50;49.20;;;;;;5053661;28;20044;-60
2022/10/25 12:47:14;;;;;;;2.70;1.13;;;24.50;49.10;;;;;;5056296;28;20080;-57
2022/10/25 12:49:56;;;;;;;4.80;1.30;;;24.50;49.00;;;;;;5044971;28;20110;-58
2022/10/25 12:53:01;;;;;;;4.22;1.60;;;24.50;48.90;;;;;;5048418;28;20032;-58
2022/10/25 12:55:41;;;;;;;2.90;1.10;;;24.60;48.90;;;;;;5013413;28;20133;-56
2022/10/25 12:58:34;;;;;;;2.35;1.30;;;24.60;49.00;;;;;;5042641;28;20036;-56
2022/10/25 13:01:20;;;;;;;2.00;1.02;;;24.60;49.00;;;;;;5042732;28;20472;-57
2022/10/25 13:04:07;;;;;;;4.38;1.60;;;24.60;49.00;;;;;;5044754;28;20044;-62
2022/10/25 13:06:36;;;;;;;3.88;1.25;;;24.60;49.20;;;;;;5044741;28;20030;-59
2022/10/25 13:09:07;;;;;;;1.38;0.90;;;24.70;49.30;;;;;;5042846;28;20017;-57
2022/10/25 13:11:39;;;;;;;2.70;1.30;;;24.70;49.40;;;;;;5045996;28;20029;-57
2022/10/25 13:14:24;;;;;;;3.15;1.20;;;24.70;49.40;;;;;;5051874;28;20032;-61
2022/10/25 13:16:50;;;;;;;6.28;1.55;;;24.70;49.40;;;;;;5052374;28;20048;-57